Hauptseite
METAR-TAF:

METAR-TAF

Flughäfen :

Memmingen, Deutschland

Breite: 47-59-33N, Länge: 10-14-37E, Höhe: 633 m

Beobachtung

Neuester Wetterbericht von vor 26 Minuten, um 16:20 UTC
Wind 5 kt aus Ost/Nordost
Temperatur 15°C
Luftfeuchtigkeit 67%
Luftdruck 1018 hPa
Sichtweite 10 km oder mehr
keine Wolken unter 1500 m und keine Kumulonimbus oder Gewitterwolken

METAR: EDJA 171620Z 06005KT CAVOK 15/09 Q1018

Zeit: 18:46 (16:46 UTC)

Prognose

Neuester Wetterbericht von vor 2 Stunden und 46 Minuten, um 14:00 UTC
Gültige Prognose vom 17 um 15 UTC bis 17 um 24 UTC
Wind 8 kt aus Ost/Nordost
Sichtweite 10 km oder mehr
keine Wolken unter 1500 m und keine Kumulonimbus oder Gewitterwolken
Übergehend zu
vom 17 um 21 UTC bis 17 um 23 UTC
Wind 3 kt aus Ost

TAF: EDJA 171400Z 1715/1724 06008KT CAVOK BECMG 1721/1723 09003KT

Wetterbeobachtungen und Prognosen von mehr als 4000 Flughäfen (METAR und TAF Bericht).

Die verfügbaren Stationen werden durch gelbe und rote Markierungen auf der Karte dargestellt.

Führen Sie die Maus auf sie, um den Namen der Station zu sehen.

Darauf klicken, um die Beobachtung von Wetterbeobachtungen und Prognosen zu sehen.

Um die Karte zu ändern : klicken Sie auf den grünen Tasten mit einem schwarzen Kreuz Zum Vergrößern, auf den grünen Button mit einem Gedankenstrich zu verkleinern, oder auf die grünen Pfeile für benachbarte Karten.


METAR-TAF: